Time;durP1;ratioP1;P1;durP2;ratioP2;P2;SDS_P1;SDS_P2;PMS_P1;PMS_P2;Temp;Humidity;BMP_temperature;BMP_pressure;BME280_temperature;BME280_humidity;BME280_pressure;Samples;Min_cycle;Max_cycle;Signal;HPM_P1;HPM_P2
2023/09/08 00:02:17;;;;;;;14.50;6.10;;;;;;;15.53;47.02;101138.07;108224;1253;70796;-66
2023/09/08 00:05:10;;;;;;;11.20;5.90;;;;;;;15.51;47.24;101136.58;108180;1254;72648;-65
2023/09/08 00:07:37;;;;;;;11.60;4.70;;;;;;;15.45;47.41;101139.98;108191;1253;59749;-66
2023/09/08 00:10:05;;;;;;;11.90;5.20;;;;;;;15.38;48.25;101141.88;108218;1252;59006;-66
2023/09/08 00:12:31;;;;;;;11.40;5.20;;;;;;;15.13;48.73;101146.39;108162;1253;72821;-67
2023/09/08 00:14:58;;;;;;;10.10;4.60;;;;;;;15.20;48.94;101148.42;108150;1254;59722;-65
2023/09/08 00:17:24;;;;;;;11.40;6.00;;;;;;;15.13;48.89;101148.02;108141;1253;59538;-66
2023/09/08 00:19:51;;;;;;;9.00;4.80;;;;;;;15.19;48.61;101145.97;108168;1254;59511;-66
2023/09/08 00:22:17;;;;;;;8.50;4.80;;;;;;;15.10;48.87;101147.41;108163;1253;60566;-66
2023/09/08 00:24:44;;;;;;;14.00;5.50;;;;;;;15.15;48.98;101142.95;108116;1253;71257;-66
2023/09/08 00:27:10;;;;;;;8.70;5.00;;;;;;;15.05;49.24;101148.14;108234;1254;59505;-66
2023/09/08 00:29:37;;;;;;;11.30;5.10;;;;;;;15.00;49.55;101152.60;108208;1254;72718;-66
2023/09/08 00:32:04;;;;;;;15.50;5.40;;;;;;;15.15;49.04;101146.48;108239;1253;60054;-66
2023/09/08 00:34:31;;;;;;;13.70;5.10;;;;;;;15.04;49.24;101146.75;108190;1254;60187;-68
2023/09/08 00:36:57;;;;;;;13.70;5.20;;;;;;;15.13;48.98;101145.33;108096;1254;59516;-66
2023/09/08 00:39:23;;;;;;;10.50;4.60;;;;;;;15.17;48.77;101143.07;108248;1254;59676;-66
2023/09/08 00:41:50;;;;;;;16.40;5.50;;;;;;;15.05;49.32;101139.48;108199;1254;59617;-66
2023/09/08 00:44:16;;;;;;;9.70;5.40;;;;;;;14.94;49.38;101136.73;108254;1254;59499;-66
2023/09/08 00:46:43;;;;;;;9.10;5.10;;;;;;;14.83;50.00;101134.83;108208;1253;59393;-66
2023/09/08 00:49:11;;;;;;;12.10;5.50;;;;;;;14.81;50.19;101137.38;108150;1257;59518;-65
2023/09/08 00:51:39;;;;;;;11.50;5.00;;;;;;;14.78;50.20;101139.79;108285;1254;68757;-67
2023/09/08 00:54:06;;;;;;;8.80;4.80;;;;;;;14.72;50.55;101143.23;108216;1253;70633;-66
2023/09/08 00:56:32;;;;;;;10.10;5.20;;;;;;;14.78;50.28;101138.77;108289;1254;59765;-66
2023/09/08 00:58:59;;;;;;;13.80;5.30;;;;;;;14.85;50.17;101136.89;108265;1253;60092;-66
2023/09/08 01:01:25;;;;;;;12.90;5.30;;;;;;;14.78;50.29;101141.06;108290;1253;59615;-65
2023/09/08 01:03:52;;;;;;;10.80;4.50;;;;;;;14.69;50.24;101142.63;108228;1253;59113;-66
2023/09/08 01:06:19;;;;;;;9.80;5.00;;;;;;;14.71;50.26;101137.97;108280;1256;72429;-65
2023/09/08 01:08:45;;;;;;;9.20;4.80;;;;;;;14.76;50.21;101138.11;108236;1252;61244;-65
2023/09/08 01:11:12;;;;;;;11.90;5.30;;;;;;;14.80;50.08;101141.48;108111;1251;60153;-66
2023/09/08 01:13:39;;;;;;;11.10;5.40;;;;;;;14.74;50.38;101147.20;108207;1253;73089;-66
2023/09/08 01:16:08;;;;;;;14.10;5.20;;;;;;;14.72;50.26;101143.95;108156;1252;70322;-65
2023/09/08 01:18:34;;;;;;;14.60;5.00;;;;;;;14.74;50.29;101144.22;108230;1252;72779;-65
2023/09/08 01:21:14;;;;;;;14.20;5.90;;;;;;;14.66;50.01;101142.58;108169;1253;61350;-65
2023/09/08 01:24:12;;;;;;;10.70;4.60;;;;;;;14.55;50.22;101137.83;108048;1253;59682;-66
2023/09/08 01:26:41;;;;;;;10.10;4.50;;;;;;;14.66;50.35;101143.45;108202;1253;71927;-66
2023/09/08 01:29:09;;;;;;;12.00;4.90;;;;;;;14.61;50.73;101145.25;108237;1253;70158;-66
2023/09/08 01:31:37;;;;;;;11.10;4.40;;;;;;;14.63;50.70;101144.63;108188;1254;72596;-64
2023/09/08 01:34:06;;;;;;;11.10;4.50;;;;;;;14.53;51.01;101143.74;108193;1254;61265;-65
2023/09/08 01:36:34;;;;;;;11.50;4.90;;;;;;;14.44;50.86;101145.45;108090;1253;60190;-67
2023/09/08 01:39:03;;;;;;;13.30;5.20;;;;;;;14.44;50.87;101143.89;108186;1253;72974;-66
2023/09/08 01:41:32;;;;;;;14.10;5.70;;;;;;;14.44;50.90;101145.30;108187;1254;70707;-66
2023/09/08 01:43:59;;;;;;;9.40;5.00;;;;;;;14.42;50.83;101146.27;108022;1255;71672;-66
2023/09/08 01:46:26;;;;;;;9.10;4.70;;;;;;;14.42;50.86;101146.23;108156;1253;59739;-66
2023/09/08 01:48:53;;;;;;;17.20;5.80;;;;;;;14.37;50.74;101148.21;108075;1253;60686;-66
2023/09/08 01:51:20;;;;;;;12.30;4.70;;;;;;;14.23;50.83;101149.42;108217;1254;73528;-65
2023/09/08 01:53:46;;;;;;;13.30;5.10;;;;;;;13.87;51.46;101144.50;108103;1253;70343;-65
2023/09/08 01:56:13;;;;;;;10.70;4.80;;;;;;;14.20;50.60;101147.41;108221;1253;59605;-65
2023/09/08 01:58:39;;;;;;;10.10;4.50;;;;;;;14.24;50.87;101144.29;108155;1254;60824;-67
2023/09/08 02:01:06;;;;;;;13.40;5.50;;;;;;;13.66;52.30;101136.73;108109;1252;60134;-67
2023/09/08 02:03:34;;;;;;;14.70;5.10;;;;;;;13.90;51.99;101138.04;108188;1254;71940;-66
2023/09/08 02:06:01;;;;;;;11.20;4.90;;;;;;;14.20;51.15;101136.45;108177;1252;71645;-64
2023/09/08 02:08:28;;;;;;;9.80;4.80;;;;;;;14.19;50.95;101137.02;108187;1253;73063;-64
2023/09/08 02:10:54;;;;;;;13.00;5.20;;;;;;;14.16;51.01;101137.85;108201;1254;60399;-64
2023/09/08 02:13:22;;;;;;;11.30;5.20;;;;;;;14.09;51.06;101133.84;108252;1253;60264;-64
2023/09/08 02:15:48;;;;;;;11.00;4.80;;;;;;;14.19;50.78;101133.67;108189;1254;74285;-64
2023/09/08 02:18:15;;;;;;;8.20;4.60;;;;;;;14.10;50.83;101129.58;108116;1254;70134;-64
2023/09/08 02:20:42;;;;;;;12.20;4.90;;;;;;;13.97;51.05;101131.44;108045;1254;73059;-65
2023/09/08 02:23:09;;;;;;;11.60;4.60;;;;;;;14.01;50.95;101130.42;108055;1254;61130;-64
2023/09/08 02:25:35;;;;;;;9.70;5.20;;;;;;;13.88;51.38;101128.95;108335;1251;60434;-65
2023/09/08 02:28:02;;;;;;;10.20;4.30;;;;;;;13.73;51.82;101130.54;108210;1251;72361;-63
2023/09/08 02:30:29;;;;;;;11.10;4.60;;;;;;;13.70;52.39;101128.66;108295;1251;70193;-65
2023/09/08 02:32:56;;;;;;;12.40;4.30;;;;;;;13.53;52.91;101126.05;108276;1251;72439;-65
2023/09/08 02:35:23;;;;;;;11.80;4.70;;;;;;;13.61;52.89;101123.67;108301;1251;61398;-64
2023/09/08 02:37:50;;;;;;;19.00;5.50;;;;;;;13.69;52.59;101118.11;108288;1251;60457;-64
2023/09/08 02:40:19;;;;;;;13.60;5.00;;;;;;;13.73;52.03;101123.98;108259;1251;72559;-64
2023/09/08 02:42:45;;;;;;;9.70;4.90;;;;;;;13.84;51.90;101120.42;108252;1251;69392;-64
2023/09/08 02:45:12;;;;;;;8.80;4.80;;;;;;;13.89;51.92;101119.17;108236;1251;73008;-66
2023/09/08 02:47:39;;;;;;;12.80;5.10;;;;;;;13.56;52.72;101115.39;108173;1251;61095;-66
2023/09/08 02:50:07;;;;;;;9.20;4.60;;;;;;;13.57;52.89;101114.62;108160;1251;60395;-66
2023/09/08 02:52:34;;;;;;;11.50;4.60;;;;;;;13.38;53.46;101116.52;108236;1251;73562;-66
2023/09/08 02:55:00;;;;;;;9.20;4.40;;;;;;;13.49;53.47;101118.09;108273;1251;60268;-66
2023/09/08 02:57:27;;;;;;;9.00;4.50;;;;;;;13.56;52.86;101117.84;108305;1251;72801;-66
2023/09/08 02:59:56;;;;;;;11.40;4.50;;;;;;;13.43;52.99;101121.83;108262;1251;60294;-65
2023/09/08 03:02:24;;;;;;;9.90;4.40;;;;;;;13.33;53.67;101125.84;108350;1252;60628;-67
2023/09/08 03:04:51;;;;;;;12.30;5.20;;;;;;;13.20;53.84;101125.87;108310;1251;73730;-66
2023/09/08 03:07:18;;;;;;;10.90;4.60;;;;;;;13.32;53.64;101129.22;108289;1251;68794;-66
2023/09/08 03:09:45;;;;;;;12.00;5.00;;;;;;;13.54;53.06;101125.70;108333;1251;72642;-66
2023/09/08 03:12:12;;;;;;;8.60;4.80;;;;;;;13.47;53.02;101128.72;108150;1254;61014;-66
2023/09/08 03:14:39;;;;;;;9.10;4.30;;;;;;;13.45;53.24;101129.30;108179;1251;60414;-66
2023/09/08 03:17:06;;;;;;;14.80;5.20;;;;;;;13.38;53.53;101125.69;108274;1251;72580;-66
2023/09/08 03:19:33;;;;;;;14.30;5.10;;;;;;;13.40;53.68;101122.95;108168;1251;69976;-66
2023/09/08 03:22:00;;;;;;;16.70;4.80;;;;;;;13.53;53.12;101124.11;108276;1251;72484;-66
2023/09/08 03:24:26;;;;;;;18.00;5.30;;;;;;;13.24;53.75;101124.33;108152;1254;60300;-66
2023/09/08 03:26:54;;;;;;;15.00;5.80;;;;;;;13.52;53.45;101123.08;108198;1254;60339;-65
2023/09/08 03:29:21;;;;;;;15.10;5.80;;;;;;;13.70;52.87;101123.02;108077;1258;73833;-66
2023/09/08 03:31:48;;;;;;;8.80;4.60;;;;;;;13.92;52.22;101123.33;108086;1254;70322;-66
2023/09/08 03:34:15;;;;;;;10.90;4.70;;;;;;;13.96;51.94;101123.69;108332;1253;71413;-67
2023/09/08 03:36:42;;;;;;;11.50;4.60;;;;;;;13.95;51.81;101122.85;108261;1254;61036;-67
2023/09/08 03:39:09;;;;;;;11.50;4.60;;;;;;;13.92;51.82;101121.72;108081;1254;60856;-66
2023/09/08 03:41:38;;;;;;;10.00;4.60;;;;;;;13.87;52.04;101123.15;108309;1256;74213;-67
2023/09/08 03:44:05;;;;;;;9.80;4.80;;;;;;;13.79;52.19;101121.65;108335;1253;70243;-66
2023/09/08 03:46:32;;;;;;;14.50;4.90;;;;;;;13.71;52.46;101120.68;108282;1254;72516;-66
2023/09/08 03:49:00;;;;;;;10.50;4.70;;;;;;;13.80;52.14;101112.25;108085;1254;61064;-66
2023/09/08 03:55:03;;;;;;;10.60;4.60;;;;;;;12.45;56.11;101114.11;106173;1287;611674;31
2023/09/08 03:57:30;;;;;;;16.20;4.90;;;;;;;13.37;53.78;101112.12;107126;1269;59687;-66
2023/09/08 03:59:57;;;;;;;11.40;4.70;;;;;;;13.57;53.66;101108.81;107119;1273;58738;-65
2023/09/08 04:02:23;;;;;;;14.50;4.10;;;;;;;14.03;53.48;101108.47;107077;1269;59376;-66
2023/09/08 04:04:50;;;;;;;11.50;5.30;;;;;;;14.54;52.73;101103.80;107113;1269;70169;-66
2023/09/08 04:07:18;;;;;;;14.20;4.80;;;;;;;15.07;51.82;101097.98;106897;1269;188427;-66
2023/09/08 04:09:45;;;;;;;10.60;4.70;;;;;;;15.41;51.31;101097.48;107092;1269;62063;-66
2023/09/08 04:12:11;;;;;;;10.80;4.40;;;;;;;16.02;49.92;101098.81;107069;1267;58742;-66
2023/09/08 04:14:38;;;;;;;10.00;4.50;;;;;;;16.53;49.14;101097.74;107124;1271;71107;-67
2023/09/08 04:17:05;;;;;;;8.40;4.20;;;;;;;17.15;47.84;101098.21;107092;1269;70337;-66
2023/09/08 04:19:32;;;;;;;7.00;3.70;;;;;;;17.73;46.69;101100.61;107152;1271;73115;-67
2023/09/08 04:21:59;;;;;;;9.00;4.00;;;;;;;18.28;45.18;101103.06;107089;1273;59542;-67
2023/09/08 04:24:25;;;;;;;8.90;4.10;;;;;;;18.65;44.43;101099.84;107043;1267;60164;-66
2023/09/08 04:26:52;;;;;;;7.60;3.60;;;;;;;19.06;43.77;101097.92;107132;1268;71947;-66
2023/09/08 04:29:19;;;;;;;12.10;4.00;;;;;;;19.59;42.69;101096.45;107095;1273;70326;-66
2023/09/08 04:31:45;;;;;;;9.70;4.10;;;;;;;20.17;41.47;101097.60;107116;1267;72473;-67
2023/09/08 04:34:12;;;;;;;10.10;3.60;;;;;;;20.80;40.21;101091.12;107147;1269;60823;-67
2023/09/08 04:36:39;;;;;;;12.20;4.40;;;;;;;21.26;39.23;101097.95;107157;1269;60359;-66
2023/09/08 04:39:08;;;;;;;16.20;4.50;;;;;;;21.85;37.98;101095.05;107150;1269;72865;-67
2023/09/08 04:41:35;;;;;;;12.10;4.20;;;;;;;22.18;37.30;101096.38;107174;1269;70646;-66
2023/09/08 04:44:02;;;;;;;16.90;4.50;;;;;;;22.56;36.78;101092.79;107115;1267;72884;-67
2023/09/08 04:46:29;;;;;;;8.30;3.50;;;;;;;22.96;36.09;101088.98;107117;1267;60386;-67
2023/09/08 04:48:56;;;;;;;9.10;3.60;;;;;;;23.56;35.03;101086.13;107149;1269;60100;-67
2023/09/08 04:51:23;;;;;;;11.70;3.70;;;;;;;23.96;34.49;101084.89;107092;1267;73127;-65
2023/09/08 04:53:50;;;;;;;12.20;3.90;;;;;;;24.45;33.84;101084.98;107105;1267;71061;-66
2023/09/08 04:56:16;;;;;;;18.60;4.80;;;;;;;24.76;33.21;101085.13;107072;1270;72524;-66
2023/09/08 04:58:43;;;;;;;26.60;4.80;;;;;;;25.13;32.64;101082.51;107128;1269;60592;-66
2023/09/08 05:01:11;;;;;;;22.40;4.90;;;;;;;25.62;31.99;101082.69;107171;1268;60633;-66
2023/09/08 05:03:38;;;;;;;22.60;4.30;;;;;;;25.95;31.71;101082.67;107140;1269;73034;-65
2023/09/08 05:06:07;;;;;;;24.90;5.30;;;;;;;26.50;30.92;101082.73;107105;1268;70204;-66
2023/09/08 05:08:33;;;;;;;21.80;4.30;;;;;;;26.67;30.60;101081.48;107126;1268;72559;-67
2023/09/08 05:11:00;;;;;;;20.00;5.30;;;;;;;26.83;30.17;101079.66;107079;1269;60245;-66
2023/09/08 05:13:28;;;;;;;21.20;4.90;;;;;;;27.06;29.99;101077.02;107061;1269;60749;-67
2023/09/08 05:16:00;;;;;;;21.90;4.90;;;;;;;27.51;29.50;101075.52;107043;1268;73466;-65
2023/09/08 05:18:29;;;;;;;28.20;4.80;;;;;;;28.11;28.79;101073.11;107130;1271;70422;-67
2023/09/08 05:20:56;;;;;;;23.10;3.80;;;;;;;28.44;28.32;101071.63;107078;1269;72685;-67
2023/09/08 05:23:22;;;;;;;14.50;4.20;;;;;;;28.70;28.21;101072.16;107086;1268;60926;-67
2023/09/08 05:25:49;;;;;;;12.80;4.00;;;;;;;28.93;28.50;101066.05;107125;1269;59011;-67
2023/09/08 05:28:16;;;;;;;31.50;5.60;;;;;;;29.40;28.26;101065.14;107111;1269;73131;-66
2023/09/08 05:30:43;;;;;;;29.50;4.50;;;;;;;29.99;27.64;101062.48;107072;1269;70499;-67
2023/09/08 05:33:11;;;;;;;17.10;3.70;;;;;;;30.50;27.71;101053.55;106974;1269;72721;-67
2023/09/08 05:35:38;;;;;;;12.50;3.50;;;;;;;31.03;27.73;101044.55;107144;1269;60126;-68
2023/09/08 05:38:05;;;;;;;18.20;4.20;;;;;;;31.44;27.62;101046.94;107060;1273;60404;-67
2023/09/08 05:40:31;;;;;;;11.40;3.40;;;;;;;31.90;27.24;101049.17;107077;1268;72845;-68
2023/09/08 05:42:58;;;;;;;9.10;2.70;;;;;;;32.25;27.06;101042.40;107115;1268;70572;-67
2023/09/08 05:45:25;;;;;;;10.10;2.80;;;;;;;32.66;26.74;101042.56;107068;1271;72750;-67
2023/09/08 05:47:52;;;;;;;10.90;2.90;;;;;;;32.93;26.61;101038.44;107062;1269;59606;-67
2023/09/08 05:50:19;;;;;;;14.40;2.90;;;;;;;32.74;26.87;101043.78;107072;1269;59538;-68
2023/09/08 05:52:46;;;;;;;10.00;3.10;;;;;;;32.63;27.22;101044.89;107085;1269;72900;-68
2023/09/08 05:55:13;;;;;;;6.00;2.60;;;;;;;33.13;26.99;101042.15;107091;1269;70447;-67
2023/09/08 05:57:40;;;;;;;5.90;2.60;;;;;;;33.22;26.64;101046.09;107058;1269;72362;-66
2023/09/08 06:00:07;;;;;;;8.40;2.60;;;;;;;33.44;26.59;101044.43;106961;1269;60277;-66
2023/09/08 06:02:39;;;;;;;5.20;2.40;;;;;;;33.86;26.33;101045.80;107161;1268;60282;-67
2023/09/08 06:05:06;;;;;;;10.00;2.60;;;;;;;34.02;26.02;101043.34;107139;1269;62839;-68
2023/09/08 06:07:33;;;;;;;5.80;2.50;;;;;;;34.21;25.67;101042.77;107162;1269;61554;-67
2023/09/08 06:10:03;;;;;;;9.10;2.30;;;;;;;34.32;25.36;101043.60;107184;1269;63944;-67
2023/09/08 06:12:31;;;;;;;6.30;2.60;;;;;;;34.49;24.97;101044.91;107117;1269;60689;-67
2023/09/08 06:14:58;;;;;;;5.60;2.40;;;;;;;34.58;24.49;101037.05;107216;1268;60155;-66
2023/09/08 06:17:24;;;;;;;6.20;2.70;;;;;;;34.41;24.64;101034.93;107128;1269;64308;-68
2023/09/08 06:19:52;;;;;;;5.20;2.30;;;;;;;34.49;24.63;101036.23;107078;1269;70342;-68
2023/09/08 06:22:19;;;;;;;7.20;2.60;;;;;;;34.63;23.75;101034.79;107076;1269;60073;-66
2023/09/08 06:24:46;;;;;;;5.00;2.40;;;;;;;34.71;23.60;101037.31;107100;1268;59628;-68
2023/09/08 06:27:14;;;;;;;6.20;2.50;;;;;;;34.80;23.51;101033.59;107056;1269;59609;-67
2023/09/08 06:29:43;;;;;;;4.60;2.10;;;;;;;34.87;23.33;101036.86;107122;1269;64258;-67
2023/09/08 06:32:10;;;;;;;3.30;1.90;;;;;;;35.11;23.14;101032.02;107122;1271;61935;-68
2023/09/08 06:34:38;;;;;;;4.90;2.10;;;;;;;35.45;22.59;101029.38;107247;1266;64241;-67
2023/09/08 06:37:05;;;;;;;40.00;5.70;;;;;;;35.35;22.22;101023.57;107484;1260;59062;-66
2023/09/08 06:39:32;;;;;;;12.40;2.70;;;;;;;35.23;21.87;101023.59;107473;1261;59519;-66
2023/09/08 06:42:00;;;;;;;26.60;3.80;;;;;;;34.95;22.23;101023.55;107493;1260;64665;-67
2023/09/08 06:44:26;;;;;;;5.20;2.00;;;;;;;34.95;22.49;101021.24;107481;1261;61594;-67
2023/09/08 06:46:53;;;;;;;9.20;2.40;;;;;;;35.20;22.03;101018.72;107501;1263;63840;-67
2023/09/08 06:49:22;;;;;;;6.50;2.10;;;;;;;35.64;21.46;101010.35;107488;1261;59650;-67
2023/09/08 06:51:48;;;;;;;9.30;2.30;;;;;;;35.74;21.38;101008.29;107477;1260;59205;-67
2023/09/08 06:54:15;;;;;;;6.70;2.10;;;;;;;35.86;21.39;101009.02;107527;1265;64222;-66
2023/09/08 06:56:43;;;;;;;6.00;2.30;;;;;;;36.26;21.05;101007.43;107518;1263;61521;-69
2023/09/08 06:59:10;;;;;;;4.80;2.10;;;;;;;36.71;20.30;101009.34;107460;1260;64054;-67
2023/09/08 07:01:37;;;;;;;6.50;2.20;;;;;;;37.01;19.78;101005.43;107442;1260;59752;-67
2023/09/08 07:04:04;;;;;;;4.60;2.00;;;;;;;37.12;19.97;101007.85;107523;1263;59593;-67
2023/09/08 07:06:33;;;;;;;3.50;1.90;;;;;;;37.02;19.43;101004.05;107473;1265;63111;-67
2023/09/08 07:09:00;;;;;;;3.70;1.80;;;;;;;37.00;19.35;101003.05;107470;1262;61671;-66
2023/09/08 07:11:30;;;;;;;5.40;2.00;;;;;;;37.05;19.19;101004.55;107463;1262;64076;-67
2023/09/08 07:13:57;;;;;;;4.30;1.70;;;;;;;37.02;18.84;100999.30;107417;1265;59686;-67
2023/09/08 07:16:23;;;;;;;4.30;1.80;;;;;;;36.96;18.95;101000.46;107425;1260;59613;-68
2023/09/08 07:18:50;;;;;;;4.90;2.10;;;;;;;37.15;18.95;100999.58;107497;1261;64364;-68
2023/09/08 07:21:17;;;;;;;15.40;2.80;;;;;;;37.09;19.12;100998.38;107451;1261;61951;-67
2023/09/08 07:23:45;;;;;;;2.30;1.70;;;;;;;36.81;19.74;100994.45;107506;1262;71577;-66
2023/09/08 07:26:12;;;;;;;5.10;1.90;;;;;;;36.75;19.80;100996.52;107442;1263;59093;-66
2023/09/08 07:28:39;;;;;;;5.80;2.20;;;;;;;36.95;19.70;100998.54;107456;1261;59720;-68
2023/09/08 07:31:09;;;;;;;3.40;1.90;;;;;;;37.20;19.64;100999.51;107498;1261;64152;-67
2023/09/08 07:33:38;;;;;;;5.90;1.90;;;;;;;37.49;19.12;101000.84;107536;1265;62225;-69
2023/09/08 07:36:05;;;;;;;5.60;2.10;;;;;;;37.67;18.98;100999.10;107439;1262;64103;-67
2023/09/08 07:38:32;;;;;;;6.50;2.40;;;;;;;37.72;18.89;100997.44;107832;1258;59643;-68
2023/09/08 07:41:00;;;;;;;22.40;3.10;;;;;;;37.43;18.71;100997.72;107844;1261;59529;-68
2023/09/08 07:43:28;;;;;;;6.30;2.50;;;;;;;37.63;18.67;100996.92;107839;1258;64382;-68
2023/09/08 07:45:55;;;;;;;6.50;2.20;;;;;;;38.18;18.79;100994.85;107582;1259;61676;-69
2023/09/08 07:48:22;;;;;;;5.80;2.40;;;;;;;38.35;18.43;100989.78;107763;1257;64013;-67
2023/09/08 07:50:48;;;;;;;5.70;2.10;;;;;;;38.08;18.36;100985.55;107803;1260;60299;-67
2023/09/08 07:53:15;;;;;;;4.50;2.10;;;;;;;37.76;18.56;100986.73;107811;1257;59507;-67
2023/09/08 07:55:41;;;;;;;4.90;2.10;;;;;;;37.82;18.48;100984.77;107820;1259;59445;-67
2023/09/08 07:58:08;;;;;;;4.50;2.60;;;;;;;37.97;18.58;100984.17;107795;1259;61633;-67
2023/09/08 08:00:34;;;;;;;7.00;2.10;;;;;;;37.86;18.57;100977.35;107637;1261;64061;-67
2023/09/08 08:03:01;;;;;;;4.10;1.70;;;;;;;37.74;18.51;100972.53;107789;1259;60344;-68
2023/09/08 08:05:28;;;;;;;4.00;1.60;;;;;;;37.64;18.60;100968.55;107686;1257;60389;-67
2023/09/08 08:07:55;;;;;;;2.40;1.50;;;;;;;37.82;18.12;100963.16;107859;1257;65115;-69
2023/09/08 08:10:22;;;;;;;3.30;1.50;;;;;;;38.06;17.36;100960.60;107881;1257;61575;-68
2023/09/08 08:12:49;;;;;;;4.90;1.40;;;;;;;38.13;17.05;100954.48;107857;1257;64102;-68
2023/09/08 08:15:15;;;;;;;4.20;1.50;;;;;;;38.20;16.67;100955.34;107598;1258;59756;-68
2023/09/08 08:17:42;;;;;;;5.40;1.00;;;;;;;38.30;16.62;100950.55;107820;1259;60542;-68
2023/09/08 08:20:16;;;;;;;2.80;1.00;;;;;;;38.23;16.49;100949.48;107875;1257;64948;-68
2023/09/08 08:22:46;;;;;;;4.20;1.30;;;;;;;38.25;16.26;100946.80;107814;1261;61675;-69
2023/09/08 08:25:13;;;;;;;2.30;1.20;;;;;;;38.38;15.57;100945.72;107806;1257;63957;-68
2023/09/08 08:27:40;;;;;;;3.00;1.00;;;;;;;38.44;15.64;100942.08;107562;1257;60310;-68
2023/09/08 08:30:07;;;;;;;2.60;1.30;;;;;;;38.44;15.43;100937.23;107876;1260;60322;-68
2023/09/08 08:32:34;;;;;;;3.60;1.30;;;;;;;38.55;15.74;100937.48;107849;1257;65378;-67
2023/09/08 08:35:04;;;;;;;1.50;0.90;;;;;;;38.65;15.57;100934.52;107931;1257;61266;-67
2023/09/08 08:37:31;;;;;;;3.50;1.40;;;;;;;38.66;15.55;100928.25;107863;1261;64211;-68
2023/09/08 08:39:58;;;;;;;3.80;1.40;;;;;;;38.46;15.58;100930.73;107864;1257;60268;-68
2023/09/08 08:42:31;;;;;;;4.20;1.30;;;;;;;38.36;15.52;100933.78;108052;1257;59433;-68
2023/09/08 08:44:58;;;;;;;4.90;1.40;;;;;;;38.39;15.36;100922.13;108015;1260;63743;-67
2023/09/08 08:47:25;;;;;;;3.80;1.30;;;;;;;38.39;15.55;100919.63;108072;1262;61890;-66
2023/09/08 08:49:52;;;;;;;5.00;1.20;;;;;;;38.54;15.58;100916.65;107813;1257;64058;-70
2023/09/08 08:52:20;;;;;;;2.30;1.10;;;;;;;38.45;15.31;100915.34;107709;1257;60373;-68
2023/09/08 08:54:46;;;;;;;3.40;1.20;;;;;;;38.31;15.62;100916.86;107754;1257;60427;-68
2023/09/08 08:57:13;;;;;;;3.10;1.20;;;;;;;38.31;15.66;100920.06;107912;1256;65086;-68
2023/09/08 08:59:43;;;;;;;2.40;1.20;;;;;;;38.21;15.45;100916.30;107700;1258;61526;-67
2023/09/08 09:02:11;;;;;;;2.50;1.20;;;;;;;38.19;15.74;100914.42;107951;1257;63755;-67
2023/09/08 09:04:38;;;;;;;2.20;1.00;;;;;;;38.06;15.90;100913.77;107888;1262;60528;-69
2023/09/08 09:07:06;;;;;;;2.70;1.10;;;;;;;37.42;16.08;100909.90;107911;1257;60271;-67
2023/09/08 09:09:33;;;;;;;2.80;1.30;;;;;;;37.38;16.20;100912.09;107939;1261;63831;-68
2023/09/08 09:12:02;;;;;;;4.10;1.20;;;;;;;37.48;16.43;100915.34;107895;1257;61653;-69
2023/09/08 09:14:33;;;;;;;3.20;1.20;;;;;;;37.47;16.16;100916.39;107822;1257;65082;-68
2023/09/08 09:17:01;;;;;;;3.10;1.00;;;;;;;37.41;16.27;100913.02;107832;1257;60365;-67
2023/09/08 09:19:30;;;;;;;2.10;1.10;;;;;;;37.34;16.33;100908.09;107907;1259;61075;-68
2023/09/08 09:21:57;;;;;;;2.20;1.00;;;;;;;37.41;16.28;100908.71;107831;1260;64033;-68
2023/09/08 09:24:43;;;;;;;4.20;1.20;;;;;;;37.45;16.17;100900.71;107707;1259;61545;-68
2023/09/08 09:27:10;;;;;;;2.10;1.00;;;;;;;37.47;16.23;100900.84;107802;1257;63893;-67
2023/09/08 09:29:48;;;;;;;2.30;1.10;;;;;;;37.48;16.15;100894.84;107949;1257;60283;-66
2023/09/08 09:32:16;;;;;;;3.40;1.10;;;;;;;37.43;16.36;100893.45;107900;1257;60438;-68
2023/09/08 09:34:56;;;;;;;2.70;0.90;;;;;;;37.44;16.31;100891.30;107859;1258;63804;-68
2023/09/08 09:37:23;;;;;;;3.30;1.30;;;;;;;37.15;16.42;100888.32;107870;1257;61545;-68
2023/09/08 09:39:53;;;;;;;7.00;2.20;;;;;;;36.84;16.59;100884.68;107857;1260;63770;-67
2023/09/08 09:42:21;;;;;;;3.10;1.20;;;;;;;36.57;16.71;100878.91;107861;1257;60441;-69
2023/09/08 09:44:48;;;;;;;4.70;1.30;;;;;;;36.38;17.06;100870.78;107874;1258;60390;-67
2023/09/08 09:47:15;;;;;;;3.50;1.30;;;;;;;36.41;17.01;100872.67;107670;1257;65211;-67
2023/09/08 09:49:46;;;;;;;3.90;1.20;;;;;;;36.24;17.12;100870.77;107672;1260;61536;-69
2023/09/08 09:52:14;;;;;;;3.40;1.20;;;;;;;36.29;17.35;100864.70;107897;1257;63832;-68
2023/09/08 09:54:43;;;;;;;6.20;1.60;;;;;;;36.46;17.15;100863.19;107787;1260;59425;-68
2023/09/08 09:57:12;;;;;;;8.40;2.10;;;;;;;36.47;17.09;100867.42;107886;1257;60329;-66
2023/09/08 09:59:40;;;;;;;6.00;1.30;;;;;;;36.42;17.37;100865.60;107707;1257;64912;-68
2023/09/08 10:02:13;;;;;;;4.60;2.30;;;;;;;36.46;17.10;100864.08;107835;1260;61560;-66
2023/09/08 10:04:41;;;;;;;7.10;3.70;;;;;;;36.51;17.32;100862.14;107889;1260;64146;-68
2023/09/08 10:07:07;;;;;;;5.50;1.70;;;;;;;36.68;16.96;100863.25;107866;1257;60821;-68
2023/09/08 10:09:37;;;;;;;3.30;1.40;;;;;;;36.51;17.00;100860.97;107918;1260;60284;-67
2023/09/08 10:12:04;;;;;;;3.20;1.30;;;;;;;36.47;17.24;100866.02;107707;1258;64985;-68
2023/09/08 10:14:32;;;;;;;4.40;1.20;;;;;;;36.46;17.11;100860.84;107921;1257;61707;-67
2023/09/08 10:16:59;;;;;;;1.10;0.80;;;;;;;36.51;17.05;100859.86;107848;1257;64481;-70
2023/09/08 10:19:26;;;;;;;3.10;1.10;;;;;;;36.42;16.65;100853.32;107854;1257;60410;-68
2023/09/08 10:21:55;;;;;;;1.80;0.90;;;;;;;36.32;16.91;100845.80;107845;1260;60326;-67
2023/09/08 10:24:23;;;;;;;4.50;1.50;;;;;;;36.30;17.20;100843.73;107836;1260;65217;-68
2023/09/08 10:26:55;;;;;;;3.40;1.70;;;;;;;36.22;17.29;100838.95;107706;1257;61494;-67
2023/09/08 10:29:22;;;;;;;1.80;1.10;;;;;;;36.20;17.13;100834.13;107829;1257;63883;-65
2023/09/08 10:31:48;;;;;;;1.90;1.20;;;;;;;36.20;16.98;100829.33;107691;1257;61502;-67
2023/09/08 10:34:17;;;;;;;3.30;1.10;;;;;;;36.12;16.93;100824.66;107573;1257;60396;-67
2023/09/08 10:36:44;;;;;;;4.60;1.00;;;;;;;36.14;17.23;100819.52;107729;1257;65273;-68
2023/09/08 10:39:39;;;;;;;3.10;1.20;;;;;;;36.21;17.43;100816.77;107728;1257;61593;-66
2023/09/08 10:42:18;;;;;;;2.30;1.00;;;;;;;36.22;17.17;100810.05;107821;1258;63918;-67
2023/09/08 10:44:51;;;;;;;3.50;1.20;;;;;;;36.13;16.98;100806.45;107823;1257;60457;-67
2023/09/08 10:47:57;;;;;;;1.70;1.10;;;;;;;36.29;16.66;100800.65;107877;1257;60530;-67
2023/09/08 10:50:33;;;;;;;2.20;1.00;;;;;;;36.11;16.66;100802.04;107464;1263;65144;-67
2023/09/08 10:53:21;;;;;;;3.80;1.20;;;;;;;35.71;17.08;100796.46;107811;1257;60337;-68
2023/09/08 10:55:53;;;;;;;4.70;1.20;;;;;;;35.42;17.75;100796.45;107717;1257;62750;-68
2023/09/08 10:58:28;;;;;;;5.10;1.20;;;;;;;35.53;17.31;100798.86;107807;1257;60408;-67
2023/09/08 11:01:00;;;;;;;2.30;1.10;;;;;;;35.75;17.36;100800.10;107843;1257;61257;-67
2023/09/08 11:03:28;;;;;;;3.60;1.00;;;;;;;35.84;16.64;100795.40;107705;1257;65474;-66
2023/09/08 11:05:55;;;;;;;2.20;1.20;;;;;;;35.89;16.68;100790.90;107936;1260;60343;-66
2023/09/08 11:08:22;;;;;;;3.60;1.00;;;;;;;35.81;16.83;100787.77;107825;1257;63889;-67
2023/09/08 11:10:50;;;;;;;4.50;1.10;;;;;;;35.72;16.84;100786.23;107826;1257;59052;-68
2023/09/08 11:13:17;;;;;;;3.50;1.10;;;;;;;35.61;16.93;100781.29;107675;1257;60438;-66
2023/09/08 11:15:44;;;;;;;1.80;1.10;;;;;;;35.68;17.22;100777.45;107827;1257;65049;-67
2023/09/08 11:18:11;;;;;;;2.20;1.10;;;;;;;35.89;17.20;100773.16;107852;1257;61360;-67
2023/09/08 11:20:38;;;;;;;2.90;1.40;;;;;;;36.06;17.09;100770.49;107797;1260;63856;-67
2023/09/08 11:23:05;;;;;;;4.50;1.40;;;;;;;36.00;17.05;100765.13;107866;1257;60444;-67